Time;durP1;ratioP1;P1;durP2;ratioP2;P2;SDS_P1;SDS_P2;PMS_P1;PMS_P2;Temp;Humidity;BMP_temperature;BMP_pressure;BME280_temperature;BME280_humidity;BME280_pressure;Samples;Min_cycle;Max_cycle;Signal;HPM_P1;HPM_P2
2022/01/16 00:01:19;;;;;;;2.20;1.73;;;;;;;;;;5055324;28;20216;-63
2022/01/16 00:04:06;;;;;;;2.43;1.90;;;;;;;;;;5058359;28;20341;-63
2022/01/16 00:06:54;;;;;;;2.47;2.07;;;;;;;;;;5059065;28;20207;-64
2022/01/16 00:09:41;;;;;;;2.47;2.07;;;;;;;;;;5060440;28;20223;-64
2022/01/16 00:12:28;;;;;;;3.00;2.17;;;;;;;;;;5060734;28;20291;-64
2022/01/16 00:15:15;;;;;;;3.23;2.10;;;;;;;;;;5060104;28;20203;-64
2022/01/16 00:18:10;;;;;;;2.33;1.87;;;;;;;;;;5051376;28;20252;-63
2022/01/16 00:20:58;;;;;;;2.17;1.87;;;;;;;;;;5058782;28;20255;-63
2022/01/16 00:23:46;;;;;;;2.40;2.00;;;;;;;;;;5062999;28;20242;-64
2022/01/16 00:26:33;;;;;;;2.03;1.77;;;;;;;;;;5068708;28;20250;-63
2022/01/16 00:29:19;;;;;;;1.60;1.50;;;;;;;;;;5062560;28;20582;-63
2022/01/16 00:32:07;;;;;;;2.23;2.03;;;;;;;;;;5062517;28;20306;-63
2022/01/16 00:34:54;;;;;;;2.03;1.60;;;;;;;;;;5063438;28;20230;-64
2022/01/16 00:37:43;;;;;;;1.77;1.47;;;;;;;;;;5061891;28;20634;-65
2022/01/16 00:40:30;;;;;;;1.57;1.47;;;;;;;;;;5052405;28;20250;-63
2022/01/16 00:43:17;;;;;;;1.83;1.50;;;;;;;;;;5059973;28;20215;-63
2022/01/16 00:46:04;;;;;;;2.43;1.60;;;;;;;;;;5059233;28;20557;-63
2022/01/16 00:48:51;;;;;;;1.70;1.60;;;;;;;;;;5060994;28;20195;-64
2022/01/16 00:51:38;;;;;;;2.13;1.80;;;;;;;;;;5062374;28;20249;-64
2022/01/16 00:54:26;;;;;;;1.57;1.47;;;;;;;;;;5061300;28;20217;-63
2022/01/16 00:57:13;;;;;;;1.97;1.77;;;;;;;;;;5061938;28;20236;-64
2022/01/16 01:00:00;;;;;;;2.30;1.90;;;;;;;;;;5059087;28;20239;-64
2022/01/16 01:02:47;;;;;;;4.13;1.93;;;;;;;;;;5062389;28;20630;-63
2022/01/16 01:05:34;;;;;;;2.30;1.80;;;;;;;;;;5061323;28;20284;-63
2022/01/16 01:08:22;;;;;;;3.03;2.20;;;;;;;;;;5061849;28;20202;-63
2022/01/16 01:11:15;;;;;;;2.63;2.00;;;;;;;;;;5058517;28;20214;-64
2022/01/16 01:14:16;;;;;;;2.30;2.03;;;;;;;;;;5054526;28;20797;-63
2022/01/16 01:17:04;;;;;;;1.77;1.63;;;;;;;;;;5060082;28;20223;-64
2022/01/16 01:19:51;;;;;;;1.97;1.70;;;;;;;;;;5059149;28;20574;-64
2022/01/16 01:22:38;;;;;;;2.90;2.10;;;;;;;;;;5059772;28;20215;-63
2022/01/16 01:25:25;;;;;;;2.30;2.03;;;;;;;;;;5058920;28;20241;-64
2022/01/16 01:28:13;;;;;;;3.83;2.00;;;;;;;;;;5057723;28;20211;-64
2022/01/16 01:31:00;;;;;;;3.73;2.20;;;;;;;;;;5060849;28;20294;-64
2022/01/16 01:33:47;;;;;;;2.57;2.07;;;;;;;;;;5056869;28;20265;-64
2022/01/16 01:36:34;;;;;;;1.73;1.63;;;;;;;;;;5060546;28;20223;-63
2022/01/16 01:39:23;;;;;;;2.37;1.70;;;;;;;;;;5055337;28;20245;-63
2022/01/16 01:42:12;;;;;;;2.17;1.90;;;;;;;;;;5049037;28;20216;-63
2022/01/16 01:51:09;;;;;;;2.80;1.97;;;;;;;;;;5060221;28;20207;-65
2022/01/16 01:53:56;;;;;;;2.00;1.80;;;;;;;;;;5060180;28;20210;-63
2022/01/16 01:56:43;;;;;;;2.10;1.60;;;;;;;;;;5056158;28;20556;-64
2022/01/16 01:59:31;;;;;;;2.33;1.93;;;;;;;;;;5055874;28;20342;-64
2022/01/16 02:02:19;;;;;;;2.67;2.10;;;;;;;;;;5058589;28;20203;-64
2022/01/16 02:05:07;;;;;;;2.03;1.60;;;;;;;;;;5054873;28;20223;-63
2022/01/16 02:07:54;;;;;;;1.80;1.30;;;;;;;;;;5062047;28;20294;-63
2022/01/16 02:10:42;;;;;;;1.43;1.30;;;;;;;;;;5049313;28;20211;-63
2022/01/16 02:13:32;;;;;;;1.63;1.40;;;;;;;;;;5055583;28;20203;-63
2022/01/16 02:28:48;;;;;;;1.40;1.30;;;;;;;;;;5060770;28;20547;-64
2022/01/16 02:31:36;;;;;;;2.53;1.70;;;;;;;;;;5061054;28;20219;-64
2022/01/16 02:34:36;;;;;;;1.10;1.10;;;;;;;;;;5060021;28;20239;-63
2022/01/16 02:37:24;;;;;;;0.87;0.87;;;;;;;;;;5058599;28;20315;-64
2022/01/16 02:40:19;;;;;;;1.80;1.70;;;;;;;;;;5056705;28;20215;-63
2022/01/16 02:43:06;;;;;;;1.53;1.40;;;;;;;;;;5057820;28;20213;-64
2022/01/16 02:46:09;;;;;;;2.23;1.50;;;;;;;;;;5059733;28;20213;-63
2022/01/16 02:48:56;;;;;;;1.40;1.30;;;;;;;;;;5055568;28;20218;-64
2022/01/16 02:51:43;;;;;;;1.27;1.17;;;;;;;;;;5056880;28;20212;-64
2022/01/16 02:54:35;;;;;;;1.50;1.40;;;;;;;;;;5061093;28;20299;-63
2022/01/16 02:57:23;;;;;;;1.60;1.10;;;;;;;;;;5061895;28;20667;-63
2022/01/16 03:00:11;;;;;;;1.60;1.40;;;;;;;;;;5055503;28;20247;-64
2022/01/16 03:02:58;;;;;;;1.17;1.10;;;;;;;;;;5057326;28;20665;-66
2022/01/16 03:05:45;;;;;;;2.00;1.30;;;;;;;;;;5059290;28;20294;-65
2022/01/16 03:08:32;;;;;;;1.23;1.13;;;;;;;;;;5060190;28;20256;-63
2022/01/16 03:11:27;;;;;;;1.03;1.00;;;;;;;;;;5062304;28;20618;-64
2022/01/16 03:14:17;;;;;;;1.30;1.20;;;;;;;;;;5057341;28;20199;-65
2022/01/16 03:17:04;;;;;;;1.20;1.10;;;;;;;;;;5062518;28;20214;-65
2022/01/16 03:22:56;;;;;;;1.30;1.20;;;;;;;;;;5063520;28;20253;-64
2022/01/16 03:25:43;;;;;;;1.47;1.37;;;;;;;;;;5061299;28;20208;-64
2022/01/16 03:28:30;;;;;;;1.37;1.20;;;;;;;;;;5069516;28;20204;-63
2022/01/16 03:31:18;;;;;;;1.67;1.20;;;;;;;;;;5064923;28;20695;-63
2022/01/16 03:34:05;;;;;;;1.17;1.13;;;;;;;;;;5060856;28;20250;-64
2022/01/16 03:36:53;;;;;;;1.27;1.23;;;;;;;;;;5063933;28;20234;-63
2022/01/16 03:39:40;;;;;;;1.37;1.27;;;;;;;;;;5060623;28;20230;-68
2022/01/16 03:42:30;;;;;;;1.10;1.10;;;;;;;;;;5061967;28;20267;-68
2022/01/16 03:45:17;;;;;;;1.40;1.30;;;;;;;;;;5062046;28;20288;-69
2022/01/16 03:48:05;;;;;;;1.10;1.10;;;;;;;;;;5060561;28;20208;-68
2022/01/16 03:50:52;;;;;;;1.43;1.33;;;;;;;;;;5061871;28;20262;-68
2022/01/16 03:53:39;;;;;;;1.27;1.10;;;;;;;;;;5062011;28;20214;-68
2022/01/16 03:56:26;;;;;;;1.33;0.93;;;;;;;;;;5064568;28;20289;-69
2022/01/16 03:59:13;;;;;;;1.00;1.00;;;;;;;;;;5057742;28;20233;-69
2022/01/16 04:02:00;;;;;;;1.03;1.03;;;;;;;;;;5062945;28;20570;-68
2022/01/16 04:04:49;;;;;;;1.10;1.00;;;;;;;;;;5059130;28;20321;-68
2022/01/16 04:07:36;;;;;;;1.23;1.13;;;;;;;;;;5062407;28;20219;-68
2022/01/16 04:10:23;;;;;;;1.00;1.00;;;;;;;;;;5067882;28;20214;-68
2022/01/16 04:13:11;;;;;;;1.50;1.00;;;;;;;;;;5055181;28;20211;-68
2022/01/16 04:15:58;;;;;;;1.00;1.00;;;;;;;;;;5061011;28;20662;-68
2022/01/16 04:18:50;;;;;;;0.70;0.70;;;;;;;;;;5053851;28;20318;-70
2022/01/16 04:21:38;;;;;;;1.00;1.00;;;;;;;;;;5060497;28;20270;-68
2022/01/16 04:24:25;;;;;;;1.30;1.20;;;;;;;;;;5062074;28;20291;-69
2022/01/16 04:27:12;;;;;;;0.93;0.93;;;;;;;;;;5057982;28;20281;-68
2022/01/16 04:29:59;;;;;;;0.80;0.80;;;;;;;;;;5060191;28;20231;-68
2022/01/16 04:32:46;;;;;;;1.17;1.07;;;;;;;;;;5059117;28;20258;-68
2022/01/16 04:35:33;;;;;;;0.93;0.93;;;;;;;;;;5061465;28;20211;-68
2022/01/16 04:38:22;;;;;;;0.97;0.97;;;;;;;;;;5061427;28;20310;-68
2022/01/16 04:44:13;;;;;;;0.70;0.70;;;;;;;;;;5061045;28;20747;-68
2022/01/16 04:47:00;;;;;;;1.07;1.03;;;;;;;;;;5059018;28;20671;-68
2022/01/16 04:49:47;;;;;;;0.80;0.80;;;;;;;;;;5060808;28;20690;-68
2022/01/16 04:52:34;;;;;;;0.90;0.90;;;;;;;;;;5058032;28;20200;-69
2022/01/16 04:55:25;;;;;;;0.80;0.80;;;;;;;;;;5060991;28;20281;-68
2022/01/16 04:58:11;;;;;;;1.03;1.03;;;;;;;;;;5061812;28;20216;-68
2022/01/16 05:00:58;;;;;;;0.80;0.80;;;;;;;;;;5061184;28;20207;-68
2022/01/16 05:03:45;;;;;;;0.87;0.87;;;;;;;;;;5059691;28;20215;-69
2022/01/16 05:06:32;;;;;;;0.93;0.90;;;;;;;;;;5048021;28;20235;-68
2022/01/16 05:09:19;;;;;;;1.00;0.90;;;;;;;;;;5056052;28;20285;-68
2022/01/16 05:12:12;;;;;;;1.00;1.00;;;;;;;;;;5061335;28;20263;-68
2022/01/16 05:18:04;;;;;;;0.83;0.83;;;;;;;;;;5056991;28;20229;-68
2022/01/16 05:20:51;;;;;;;1.00;1.00;;;;;;;;;;5053276;28;20226;-68
2022/01/16 05:23:38;;;;;;;1.03;1.03;;;;;;;;;;5064829;28;20298;-68
2022/01/16 05:26:27;;;;;;;1.00;1.00;;;;;;;;;;5056097;28;20247;-68
2022/01/16 05:29:15;;;;;;;1.33;1.23;;;;;;;;;;5059662;28;20199;-68
2022/01/16 05:32:02;;;;;;;1.03;1.00;;;;;;;;;;5056328;28;20204;-68
2022/01/16 05:34:49;;;;;;;0.90;0.90;;;;;;;;;;5057664;28;20266;-68
2022/01/16 05:37:36;;;;;;;0.70;0.70;;;;;;;;;;5061055;28;20223;-68
2022/01/16 05:40:23;;;;;;;1.33;1.23;;;;;;;;;;5057342;28;20288;-68
2022/01/16 05:43:10;;;;;;;1.30;1.30;;;;;;;;;;5062589;28;20277;-68
2022/01/16 05:45:59;;;;;;;1.43;1.33;;;;;;;;;;5057240;28;20231;-68
2022/01/16 05:48:46;;;;;;;1.20;1.20;;;;;;;;;;5064456;28;20250;-68
2022/01/16 05:51:33;;;;;;;1.13;1.13;;;;;;;;;;5059091;28;20360;-69
2022/01/16 05:54:20;;;;;;;1.20;1.20;;;;;;;;;;5058919;28;20683;-68
2022/01/16 05:57:07;;;;;;;1.30;1.30;;;;;;;;;;5063146;28;20305;-68
2022/01/16 05:59:55;;;;;;;1.27;1.17;;;;;;;;;;5058760;28;20256;-68
2022/01/16 06:02:43;;;;;;;1.33;1.23;;;;;;;;;;5059738;28;20211;-68
2022/01/16 06:05:30;;;;;;;1.07;1.07;;;;;;;;;;5058217;28;20271;-68
2022/01/16 06:08:17;;;;;;;0.90;0.90;;;;;;;;;;5061447;28;20252;-68
2022/01/16 06:11:04;;;;;;;1.40;1.30;;;;;;;;;;5059716;28;20948;-68
2022/01/16 06:13:52;;;;;;;1.83;1.50;;;;;;;;;;5061304;28;20604;-68
2022/01/16 06:16:39;;;;;;;1.10;1.10;;;;;;;;;;5058068;28;20803;-68
2022/01/16 06:19:27;;;;;;;1.40;1.30;;;;;;;;;;5057906;28;20281;-69
2022/01/16 06:22:14;;;;;;;1.10;1.10;;;;;;;;;;5063517;28;20287;-68
2022/01/16 06:25:01;;;;;;;1.27;1.27;;;;;;;;;;5061249;28;20336;-68
2022/01/16 06:27:48;;;;;;;1.30;1.20;;;;;;;;;;5051069;28;20314;-68
2022/01/16 06:30:35;;;;;;;1.30;1.30;;;;;;;;;;5065250;28;20282;-68
2022/01/16 06:33:24;;;;;;;1.10;1.10;;;;;;;;;;5058236;28;20318;-68
2022/01/16 06:36:12;;;;;;;1.27;1.20;;;;;;;;;;5059696;28;20663;-68
2022/01/16 06:39:00;;;;;;;1.23;1.23;;;;;;;;;;5054581;28;20323;-68
2022/01/16 06:41:47;;;;;;;0.90;0.90;;;;;;;;;;5061953;28;20702;-68
2022/01/16 06:44:33;;;;;;;1.00;1.00;;;;;;;;;;5060037;28;20243;-68
2022/01/16 06:47:21;;;;;;;1.07;1.07;;;;;;;;;;5056496;28;20244;-68
2022/01/16 06:50:09;;;;;;;1.10;1.10;;;;;;;;;;5061962;28;20241;-68
2022/01/16 06:52:58;;;;;;;0.97;0.97;;;;;;;;;;5061325;28;20243;-68
2022/01/16 06:55:45;;;;;;;0.80;0.80;;;;;;;;;;5062365;28;20207;-68
2022/01/16 06:58:32;;;;;;;1.00;1.00;;;;;;;;;;5061201;28;20275;-68
2022/01/16 07:01:18;;;;;;;0.77;0.77;;;;;;;;;;5063225;28;20195;-68
2022/01/16 07:04:05;;;;;;;0.70;0.70;;;;;;;;;;5060930;28;20253;-68
2022/01/16 07:06:52;;;;;;;0.73;0.70;;;;;;;;;;5063056;28;20287;-68
2022/01/16 07:09:41;;;;;;;0.77;0.77;;;;;;;;;;5064980;28;20632;-68
2022/01/16 07:12:27;;;;;;;0.80;0.80;;;;;;;;;;5065563;28;20207;-68
2022/01/16 07:15:14;;;;;;;0.70;0.70;;;;;;;;;;5064545;28;20207;-68
2022/01/16 07:18:02;;;;;;;0.73;0.73;;;;;;;;;;5066214;28;20270;-68
2022/01/16 07:20:49;;;;;;;0.70;0.70;;;;;;;;;;5064010;28;20203;-68
2022/01/16 07:23:36;;;;;;;0.80;0.80;;;;;;;;;;5064821;28;20272;-68
2022/01/16 07:26:25;;;;;;;0.80;0.80;;;;;;;;;;5060847;28;20321;-68
2022/01/16 07:29:12;;;;;;;0.70;0.70;;;;;;;;;;5063396;28;20222;-68
2022/01/16 07:31:59;;;;;;;0.70;0.70;;;;;;;;;;5061281;28;20263;-68
2022/01/16 07:34:46;;;;;;;0.60;0.60;;;;;;;;;;5059956;28;20215;-69
2022/01/16 07:37:33;;;;;;;0.80;0.80;;;;;;;;;;5061609;28;20642;-69
2022/01/16 07:40:21;;;;;;;0.90;0.90;;;;;;;;;;5060061;28;20325;-69
2022/01/16 07:43:09;;;;;;;1.37;0.70;;;;;;;;;;5068736;28;20216;-69
2022/01/16 07:45:56;;;;;;;0.73;0.73;;;;;;;;;;5059522;28;20239;-69
2022/01/16 07:48:43;;;;;;;1.10;1.10;;;;;;;;;;5063504;28;20208;-69
2022/01/16 07:51:32;;;;;;;0.90;0.90;;;;;;;;;;5059434;28;20574;-69
2022/01/16 07:54:19;;;;;;;0.93;0.93;;;;;;;;;;5057980;28;20757;-69
2022/01/16 07:57:06;;;;;;;0.90;0.90;;;;;;;;;;5063281;28;20208;-69
2022/01/16 07:59:55;;;;;;;0.93;0.93;;;;;;;;;;5064609;28;20235;-69
2022/01/16 08:02:41;;;;;;;0.90;0.83;;;;;;;;;;5057483;28;20234;-69
2022/01/16 08:05:29;;;;;;;0.70;0.70;;;;;;;;;;5061693;28;20243;-69
2022/01/16 08:08:16;;;;;;;1.00;1.00;;;;;;;;;;5060709;28;20690;-69
2022/01/16 08:11:03;;;;;;;0.87;0.87;;;;;;;;;;5065175;28;20684;-69
2022/01/16 08:13:50;;;;;;;0.93;0.93;;;;;;;;;;5060994;28;20337;-69
2022/01/16 08:16:38;;;;;;;1.07;1.07;;;;;;;;;;5060671;28;20289;-69
2022/01/16 08:19:25;;;;;;;1.00;1.00;;;;;;;;;;5060510;28;20328;-68
2022/01/16 08:22:12;;;;;;;1.27;0.97;;;;;;;;;;5064116;28;20302;-69
2022/01/16 08:24:59;;;;;;;1.00;1.00;;;;;;;;;;5060272;28;20235;-69
2022/01/16 08:27:46;;;;;;;1.00;1.00;;;;;;;;;;5058136;28;20355;-69
2022/01/16 08:30:33;;;;;;;0.90;0.90;;;;;;;;;;5058474;28;20300;-69
2022/01/16 08:33:21;;;;;;;1.00;1.00;;;;;;;;;;5058851;28;20316;-69
2022/01/16 08:36:08;;;;;;;0.90;0.90;;;;;;;;;;5060702;28;20741;-69
2022/01/16 08:38:55;;;;;;;1.23;1.13;;;;;;;;;;5059610;28;20207;-69
2022/01/16 08:41:42;;;;;;;0.97;0.97;;;;;;;;;;5061845;28;20579;-69
2022/01/16 08:44:29;;;;;;;1.00;1.00;;;;;;;;;;5058709;28;20195;-69
2022/01/16 08:47:16;;;;;;;1.10;1.10;;;;;;;;;;5060182;28;20357;-69
2022/01/16 08:50:06;;;;;;;1.33;1.30;;;;;;;;;;5057529;28;20286;-68
2022/01/16 08:52:53;;;;;;;1.20;1.13;;;;;;;;;;5057363;28;20192;-69
2022/01/16 08:55:40;;;;;;;1.30;1.30;;;;;;;;;;5059658;28;20560;-69
2022/01/16 08:58:28;;;;;;;1.23;1.23;;;;;;;;;;5058518;28;20288;-69
2022/01/16 09:01:15;;;;;;;1.90;1.67;;;;;;;;;;5060480;28;20219;-69
2022/01/16 09:04:02;;;;;;;1.43;1.37;;;;;;;;;;5056323;28;20267;-70
2022/01/16 09:06:50;;;;;;;1.33;1.33;;;;;;;;;;5060958;28;20285;-69
2022/01/16 09:09:37;;;;;;;1.40;1.40;;;;;;;;;;5060514;28;20290;-69
2022/01/16 09:12:24;;;;;;;1.60;1.50;;;;;;;;;;5061021;28;20204;-69
2022/01/16 09:15:12;;;;;;;1.60;1.50;;;;;;;;;;5059682;28;20308;-69
2022/01/16 09:17:59;;;;;;;1.90;1.80;;;;;;;;;;5058365;28;20196;-69
2022/01/16 09:20:46;;;;;;;2.13;2.00;;;;;;;;;;5058388;28;20222;-69
2022/01/16 09:23:35;;;;;;;2.00;1.90;;;;;;;;;;5061417;28;20302;-69
2022/01/16 09:26:25;;;;;;;2.00;1.90;;;;;;;;;;5062246;28;20224;-69
2022/01/16 09:29:11;;;;;;;2.13;2.03;;;;;;;;;;5058936;28;20283;-69
2022/01/16 09:31:59;;;;;;;1.90;1.80;;;;;;;;;;5059069;28;20231;-69
2022/01/16 09:34:46;;;;;;;2.10;2.00;;;;;;;;;;5038530;28;20254;-69
2022/01/16 09:37:33;;;;;;;2.67;2.30;;;;;;;;;;5041732;28;20342;-69
2022/01/16 09:40:22;;;;;;;2.40;2.30;;;;;;;;;;5039136;28;20235;-69
2022/01/16 09:43:09;;;;;;;2.50;2.40;;;;;;;;;;5043140;28;20231;-69
2022/01/16 09:45:56;;;;;;;2.43;2.33;;;;;;;;;;5038062;28;20270;-69
2022/01/16 09:48:43;;;;;;;2.40;2.30;;;;;;;;;;5041878;28;20294;-69
2022/01/16 09:51:31;;;;;;;2.60;2.50;;;;;;;;;;5037467;28;20201;-69
2022/01/16 09:54:19;;;;;;;2.80;2.60;;;;;;;;;;5038595;28;20212;-69
2022/01/16 09:57:08;;;;;;;2.80;2.60;;;;;;;;;;5037718;28;20209;-69
2022/01/16 09:59:55;;;;;;;3.37;3.07;;;;;;;;;;5040567;28;20309;-68
2022/01/16 10:02:42;;;;;;;3.03;2.87;;;;;;;;;;5039844;28;20301;-68
2022/01/16 10:05:34;;;;;;;2.63;2.43;;;;;;;;;;5045440;28;20207;-69
2022/01/16 10:08:27;;;;;;;3.10;2.90;;;;;;;;;;5042553;28;20209;-69
2022/01/16 10:11:27;;;;;;;2.67;2.53;;;;;;;;;;5030136;28;20232;-69
2022/01/16 10:14:22;;;;;;;3.00;2.80;;;;;;;;;;5037577;28;20208;-69
2022/01/16 10:17:10;;;;;;;2.87;2.67;;;;;;;;;;5041170;28;20271;-69
2022/01/16 10:19:59;;;;;;;2.43;2.33;;;;;;;;;;5036200;28;20684;-69
2022/01/16 10:22:48;;;;;;;2.83;2.67;;;;;;;;;;5041685;28;20208;-69
2022/01/16 10:25:38;;;;;;;2.90;2.70;;;;;;;;;;5036095;28;20212;-69
2022/01/16 10:28:26;;;;;;;2.50;2.40;;;;;;;;;;5041515;28;20216;-69
2022/01/16 10:31:19;;;;;;;2.80;2.60;;;;;;;;;;5040823;28;20752;-69
2022/01/16 10:34:24;;;;;;;2.70;2.50;;;;;;;;;;5036869;28;20231;-69
2022/01/16 10:37:20;;;;;;;2.80;2.60;;;;;;;;;;5035773;28;20301;-69
2022/01/16 10:40:10;;;;;;;2.80;2.60;;;;;;;;;;5033800;28;21381;-69
2022/01/16 10:42:58;;;;;;;2.70;2.50;;;;;;;;;;5039149;28;20298;-69
2022/01/16 10:45:46;;;;;;;2.97;2.60;;;;;;;;;;5040155;28;20248;-69
2022/01/16 10:48:34;;;;;;;2.40;2.20;;;;;;;;;;5042722;28;20371;-69
2022/01/16 10:51:21;;;;;;;2.70;2.60;;;;;;;;;;5034796;28;20276;-69
2022/01/16 10:54:31;;;;;;;2.60;2.40;;;;;;;;;;5041089;28;20246;-69
2022/01/16 10:57:20;;;;;;;2.70;2.50;;;;;;;;;;5040938;28;20213;-69
2022/01/16 11:00:13;;;;;;;2.67;2.47;;;;;;;;;;5040127;28;20625;-69
2022/01/16 11:03:02;;;;;;;2.50;2.30;;;;;;;;;;5039378;28;20227;-69
2022/01/16 11:05:51;;;;;;;2.70;2.50;;;;;;;;;;5037292;28;20697;-69
2022/01/16 11:08:39;;;;;;;2.70;2.50;;;;;;;;;;5039734;28;20200;-69
2022/01/16 11:11:27;;;;;;;2.20;2.10;;;;;;;;;;5039788;28;20211;-69
2022/01/16 11:14:14;;;;;;;2.37;2.27;;;;;;;;;;5040462;28;20691;-69
2022/01/16 11:17:01;;;;;;;2.20;2.10;;;;;;;;;;5041188;28;20749;-69
2022/01/16 11:19:48;;;;;;;2.30;2.20;;;;;;;;;;5030684;28;20550;-69
2022/01/16 11:22:56;;;;;;;2.63;2.53;;;;;;;;;;5039182;28;20243;-69
2022/01/16 11:25:44;;;;;;;2.70;2.50;;;;;;;;;;5041429;28;20307;-69
2022/01/16 11:28:31;;;;;;;2.30;2.20;;;;;;;;;;5037481;28;20265;-69
2022/01/16 11:31:19;;;;;;;2.23;2.13;;;;;;;;;;5040044;28;20286;-69
2022/01/16 11:34:05;;;;;;;2.10;2.00;;;;;;;;;;5052409;28;20374;-69
2022/01/16 11:36:54;;;;;;;2.10;2.00;;;;;;;;;;5058691;28;20298;-69
2022/01/16 11:39:43;;;;;;;1.97;1.87;;;;;;;;;;5062443;28;20208;-69
2022/01/16 11:42:36;;;;;;;2.03;1.93;;;;;;;;;;5065159;28;20634;-69
2022/01/16 11:45:23;;;;;;;2.03;1.93;;;;;;;;;;5065509;28;20659;-69
2022/01/16 11:48:10;;;;;;;2.20;2.10;;;;;;;;;;5060552;28;20298;-70
2022/01/16 11:50:57;;;;;;;2.00;1.90;;;;;;;;;;5061441;28;20235;-69
2022/01/16 11:54:04;;;;;;;1.93;1.83;;;;;;;;;;5059306;28;20343;-67
2022/01/16 11:56:58;;;;;;;1.80;1.70;;;;;;;;;;5065066;28;20204;-69
2022/01/16 11:59:46;;;;;;;2.17;2.07;;;;;;;;;;5063042;28;20283;-69
2022/01/16 12:02:38;;;;;;;2.07;1.97;;;;;;;;;;5065938;28;20243;-69
2022/01/16 12:05:26;;;;;;;2.40;2.20;;;;;;;;;;5058451;28;20211;-69
2022/01/16 12:08:19;;;;;;;2.80;2.33;;;;;;;;;;5064284;28;20694;-69
2022/01/16 12:11:06;;;;;;;2.00;1.90;;;;;;;;;;5066546;28;20205;-69
2022/01/16 12:13:54;;;;;;;2.43;2.23;;;;;;;;;;5061567;28;20262;-69
2022/01/16 12:16:46;;;;;;;2.00;1.90;;;;;;;;;;5058901;28;20571;-69
2022/01/16 12:19:47;;;;;;;1.97;1.87;;;;;;;;;;5061826;28;20789;-69
2022/01/16 12:22:43;;;;;;;2.10;2.00;;;;;;;;;;5063156;28;20200;-69
2022/01/16 12:25:32;;;;;;;2.20;2.03;;;;;;;;;;5064177;28;20677;-69
2022/01/16 12:28:23;;;;;;;2.10;2.00;;;;;;;;;;5062426;28;20224;-69
2022/01/16 12:31:12;;;;;;;2.00;1.90;;;;;;;;;;5059503;28;20208;-69
2022/01/16 12:34:01;;;;;;;2.30;2.10;;;;;;;;;;5060111;28;20240;-69
2022/01/16 12:36:48;;;;;;;2.17;2.03;;;;;;;;;;5063400;28;20203;-69
2022/01/16 12:39:42;;;;;;;2.20;2.10;;;;;;;;;;5063654;28;20282;-69
2022/01/16 12:42:29;;;;;;;2.17;2.00;;;;;;;;;;5061678;28;20772;-69
2022/01/16 12:45:16;;;;;;;2.10;2.00;;;;;;;;;;5057799;28;20603;-69
2022/01/16 12:48:05;;;;;;;2.33;2.13;;;;;;;;;;5062922;28;20247;-69
2022/01/16 12:50:59;;;;;;;1.80;1.70;;;;;;;;;;5056084;28;20295;-69
2022/01/16 12:53:48;;;;;;;1.97;1.77;;;;;;;;;;5061411;28;20281;-69
2022/01/16 12:56:39;;;;;;;1.67;1.57;;;;;;;;;;5062950;28;20298;-69
2022/01/16 12:59:27;;;;;;;2.13;2.00;;;;;;;;;;5062694;28;20240;-69
2022/01/16 13:02:15;;;;;;;2.20;2.00;;;;;;;;;;5061835;28;20274;-69
2022/01/16 13:05:03;;;;;;;1.50;1.40;;;;;;;;;;5060258;28;20252;-70
2022/01/16 13:08:00;;;;;;;2.10;1.90;;;;;;;;;;5061795;28;20208;-69
2022/01/16 13:10:47;;;;;;;1.80;1.70;;;;;;;;;;5060271;28;20552;-69
2022/01/16 13:13:34;;;;;;;1.90;1.80;;;;;;;;;;5059101;28;20295;-69
2022/01/16 13:16:23;;;;;;;1.80;1.70;;;;;;;;;;5060097;28;20342;-69
2022/01/16 13:19:14;;;;;;;1.90;1.67;;;;;;;;;;5059538;28;20285;-67
2022/01/16 13:22:06;;;;;;;1.70;1.60;;;;;;;;;;5062109;28;20686;-69
2022/01/16 13:24:55;;;;;;;2.10;1.97;;;;;;;;;;5060786;28;20216;-69
2022/01/16 13:27:43;;;;;;;1.93;1.80;;;;;;;;;;5059703;28;20243;-69
2022/01/16 13:30:34;;;;;;;2.20;2.00;;;;;;;;;;5062315;28;20262;-69
2022/01/16 13:33:21;;;;;;;1.87;1.77;;;;;;;;;;5060294;28;20619;-69
2022/01/16 13:36:08;;;;;;;2.17;2.07;;;;;;;;;;5062147;28;20219;-69
2022/01/16 13:38:56;;;;;;;4.33;1.73;;;;;;;;;;5054646;28;20804;-69
2022/01/16 13:41:44;;;;;;;1.47;1.37;;;;;;;;;;5061234;28;20224;-69
2022/01/16 13:44:31;;;;;;;2.00;1.90;;;;;;;;;;5059163;28;20210;-69
2022/01/16 13:47:20;;;;;;;3.30;1.80;;;;;;;;;;5059398;28;20287;-69
2022/01/16 13:50:13;;;;;;;2.07;1.90;;;;;;;;;;5061392;28;20290;-69
2022/01/16 13:53:02;;;;;;;2.10;1.90;;;;;;;;;;5059850;28;20291;-69
2022/01/16 13:55:54;;;;;;;2.10;1.87;;;;;;;;;;5061560;28;20273;-69
2022/01/16 13:58:44;;;;;;;2.10;1.90;;;;;;;;;;5061150;28;20580;-69
2022/01/16 14:01:33;;;;;;;1.93;1.67;;;;;;;;;;5057049;28;20223;-69
2022/01/16 14:04:21;;;;;;;2.50;1.90;;;;;;;;;;5056079;28;20580;-69
2022/01/16 14:07:09;;;;;;;2.30;1.60;;;;;;;;;;5056618;28;20211;-69
2022/01/16 14:09:56;;;;;;;1.60;1.50;;;;;;;;;;5058393;28;20200;-69
2022/01/16 14:12:56;;;;;;;1.90;1.77;;;;;;;;;;5058991;28;21159;-69
2022/01/16 14:16:02;;;;;;;1.63;1.53;;;;;;;;;;5057314;28;20208;-69
2022/01/16 14:19:08;;;;;;;1.80;1.70;;;;;;;;;;5059101;28;20341;-69
2022/01/16 14:22:02;;;;;;;1.77;1.63;;;;;;;;;;5054842;28;20338;-69
2022/01/16 14:24:51;;;;;;;2.10;1.87;;;;;;;;;;5058774;28;20221;-69
2022/01/16 14:27:38;;;;;;;2.70;1.87;;;;;;;;;;5057517;28;20318;-69
2022/01/16 14:30:26;;;;;;;2.20;2.00;;;;;;;;;;5060326;28;20298;-69
2022/01/16 14:33:13;;;;;;;2.00;1.80;;;;;;;;;;5059951;28;20234;-69
2022/01/16 14:36:00;;;;;;;1.50;1.40;;;;;;;;;;5059068;28;20326;-69
2022/01/16 14:38:47;;;;;;;1.87;1.70;;;;;;;;;;5060447;28;20685;-69
2022/01/16 14:41:35;;;;;;;2.27;1.70;;;;;;;;;;5057028;28;20680;-69
2022/01/16 14:44:25;;;;;;;1.83;1.60;;;;;;;;;;5061220;28;20212;-69
2022/01/16 14:47:16;;;;;;;1.70;1.60;;;;;;;;;;5058413;28;20730;-69
2022/01/16 14:50:04;;;;;;;1.70;1.60;;;;;;;;;;5060469;28;20529;-69
2022/01/16 14:52:51;;;;;;;1.97;1.40;;;;;;;;;;5057965;28;20276;-70
2022/01/16 14:55:38;;;;;;;1.60;1.50;;;;;;;;;;5062229;28;20239;-69
2022/01/16 14:58:25;;;;;;;1.40;1.40;;;;;;;;;;5058616;28;20337;-69
2022/01/16 15:01:13;;;;;;;2.20;1.57;;;;;;;;;;5061127;28;20234;-69
2022/01/16 15:04:02;;;;;;;1.50;1.40;;;;;;;;;;5056109;28;20295;-69
2022/01/16 15:06:49;;;;;;;2.10;1.90;;;;;;;;;;5061979;28;20212;-70
2022/01/16 15:09:37;;;;;;;1.87;1.70;;;;;;;;;;5058366;28;20690;-69
2022/01/16 15:12:24;;;;;;;1.70;1.60;;;;;;;;;;5065584;28;20240;-69
2022/01/16 15:15:11;;;;;;;2.13;1.73;;;;;;;;;;5059750;28;20698;-69
2022/01/16 15:18:00;;;;;;;1.47;1.37;;;;;;;;;;5062621;28;20249;-70
2022/01/16 15:20:48;;;;;;;1.70;1.60;;;;;;;;;;5059686;28;20208;-68
2022/01/16 15:23:35;;;;;;;1.73;1.60;;;;;;;;;;5062523;28;20666;-69
2022/01/16 15:26:22;;;;;;;1.70;1.60;;;;;;;;;;5059730;28;20222;-69
2022/01/16 15:29:11;;;;;;;2.07;1.70;;;;;;;;;;5060417;28;20599;-69
2022/01/16 15:31:58;;;;;;;2.97;1.60;;;;;;;;;;5066717;28;20666;-69
2022/01/16 15:34:45;;;;;;;1.40;1.30;;;;;;;;;;5061336;28;20233;-69
2022/01/16 15:37:34;;;;;;;1.57;1.43;;;;;;;;;;5062237;28;20219;-69
2022/01/16 15:40:21;;;;;;;1.70;1.60;;;;;;;;;;5063017;28;20204;-70
2022/01/16 15:43:11;;;;;;;3.17;1.80;;;;;;;;;;5055558;28;20856;-69
2022/01/16 15:45:59;;;;;;;1.60;1.50;;;;;;;;;;5059605;28;20211;-69
2022/01/16 15:48:46;;;;;;;1.40;1.30;;;;;;;;;;5058398;28;20195;-70
2022/01/16 15:51:33;;;;;;;2.53;1.87;;;;;;;;;;5063499;28;20334;-69
2022/01/16 15:54:21;;;;;;;2.87;1.80;;;;;;;;;;5048165;28;20232;-70
2022/01/16 15:57:08;;;;;;;3.13;1.40;;;;;;;;;;5061292;28;20213;-69
2022/01/16 15:59:56;;;;;;;2.63;2.00;;;;;;;;;;5062692;28;20239;-69
2022/01/16 16:02:45;;;;;;;3.40;2.30;;;;;;;;;;5065679;28;20702;-69
2022/01/16 16:05:32;;;;;;;6.27;4.10;;;;;;;;;;5062211;28;20212;-69
2022/01/16 16:08:22;;;;;;;9.93;6.47;;;;;;;;;;5057368;28;20266;-69
2022/01/16 16:11:10;;;;;;;10.43;6.57;;;;;;;;;;5064631;28;20245;-69
2022/01/16 16:13:57;;;;;;;9.33;6.70;;;;;;;;;;5063064;28;20698;-69
2022/01/16 16:16:44;;;;;;;9.37;6.47;;;;;;;;;;5059275;28;20296;-69
2022/01/16 16:19:31;;;;;;;5.77;4.57;;;;;;;;;;5061779;28;20212;-70
2022/01/16 16:22:21;;;;;;;10.07;6.87;;;;;;;;;;5057636;28;20630;-69
2022/01/16 16:25:09;;;;;;;11.03;6.90;;;;;;;;;;5062477;28;20736;-69
2022/01/16 16:27:59;;;;;;;9.67;6.57;;;;;;;;;;5058357;28;20235;-69
2022/01/16 16:30:46;;;;;;;8.90;6.70;;;;;;;;;;5063540;28;20211;-69
2022/01/16 16:33:32;;;;;;;8.60;6.33;;;;;;;;;;5058232;28;20327;-69
2022/01/16 16:36:19;;;;;;;11.70;7.10;;;;;;;;;;5063416;28;20233;-69
2022/01/16 16:39:07;;;;;;;9.73;7.13;;;;;;;;;;5060941;28;20627;-69
2022/01/16 16:41:56;;;;;;;11.67;7.20;;;;;;;;;;5058865;28;20284;-69
2022/01/16 16:44:46;;;;;;;9.00;7.23;;;;;;;;;;5059967;28;20208;-69
2022/01/16 16:47:33;;;;;;;10.77;7.37;;;;;;;;;;5058847;28;20641;-69
2022/01/16 16:50:20;;;;;;;10.20;7.47;;;;;;;;;;5059299;28;20214;-69
2022/01/16 16:53:08;;;;;;;16.90;10.63;;;;;;;;;;5062108;28;20264;-69
2022/01/16 16:55:55;;;;;;;22.40;12.60;;;;;;;;;;5061241;28;20214;-70
2022/01/16 16:58:42;;;;;;;21.63;13.13;;;;;;;;;;5060791;28;20213;-69
2022/01/16 17:01:30;;;;;;;23.40;13.87;;;;;;;;;;5054958;28;20262;-69
2022/01/16 17:04:18;;;;;;;23.17;13.47;;;;;;;;;;5059780;28;20718;-68
2022/01/16 17:07:05;;;;;;;23.77;13.87;;;;;;;;;;5064293;28;20250;-69
2022/01/16 17:09:52;;;;;;;20.10;12.87;;;;;;;;;;5062832;28;20226;-69
2022/01/16 17:12:42;;;;;;;21.07;11.90;;;;;;;;;;5060671;28;20274;-70
2022/01/16 17:15:29;;;;;;;20.47;11.80;;;;;;;;;;5060388;28;20197;-69
2022/01/16 17:18:21;;;;;;;18.40;10.73;;;;;;;;;;5059310;28;20216;-69